sensor_id;sensor_type;location;lat;lon;timestamp;pressure;altitude;pressure_sealevel;temperature;humidity
76611;BME280;65503;48.534;9.062;2023-06-24T00:00:50;97831.97;;;18.41;61.59
76611;BME280;65503;48.534;9.062;2023-06-24T00:03:18;97825.31;;;18.38;61.44
76611;BME280;65503;48.534;9.062;2023-06-24T00:05:45;97835.16;;;18.33;61.58
76611;BME280;65503;48.534;9.062;2023-06-24T00:08:16;97835.13;;;18.28;61.99
76611;BME280;65503;48.534;9.062;2023-06-24T00:10:49;97826.03;;;18.24;62.24
76611;BME280;65503;48.534;9.062;2023-06-24T00:13:15;97825.47;;;18.16;62.36
76611;BME280;65503;48.534;9.062;2023-06-24T00:15:42;97826.75;;;18.14;62.22
76611;BME280;65503;48.534;9.062;2023-06-24T00:18:10;97829.16;;;18.10;62.24
76611;BME280;65503;48.534;9.062;2023-06-24T00:20:37;97832.31;;;18.07;62.71
76611;BME280;65503;48.534;9.062;2023-06-24T00:23:04;97825.38;;;18.06;62.38
76611;BME280;65503;48.534;9.062;2023-06-24T00:25:30;97819.69;;;17.93;62.53
76611;BME280;65503;48.534;9.062;2023-06-24T00:27:57;97822.59;;;17.91;62.67
76611;BME280;65503;48.534;9.062;2023-06-24T00:30:26;97825.81;;;17.93;63.40
76611;BME280;65503;48.534;9.062;2023-06-24T00:32:53;97831.16;;;17.93;63.09
76611;BME280;65503;48.534;9.062;2023-06-24T00:35:19;97826.31;;;17.90;63.36
76611;BME280;65503;48.534;9.062;2023-06-24T00:37:46;97821.53;;;17.87;63.55
76611;BME280;65503;48.534;9.062;2023-06-24T00:40:13;97821.53;;;17.87;63.50
76611;BME280;65503;48.534;9.062;2023-06-24T00:42:44;97821.81;;;17.91;63.80
76611;BME280;65503;48.534;9.062;2023-06-24T00:45:12;97819.91;;;17.86;63.90
76611;BME280;65503;48.534;9.062;2023-06-24T00:47:40;97828.66;;;17.82;64.49
76611;BME280;65503;48.534;9.062;2023-06-24T00:50:07;97820.69;;;17.82;64.04
76611;BME280;65503;48.534;9.062;2023-06-24T00:52:34;97827.31;;;17.79;64.14
76611;BME280;65503;48.534;9.062;2023-06-24T00:55:04;97835.69;;;17.66;64.40
76611;BME280;65503;48.534;9.062;2023-06-24T00:57:30;97829.22;;;17.57;64.79
76611;BME280;65503;48.534;9.062;2023-06-24T00:59:59;97822.84;;;17.58;64.42
76611;BME280;65503;48.534;9.062;2023-06-24T01:02:26;97823.84;;;17.52;64.66
76611;BME280;65503;48.534;9.062;2023-06-24T01:04:54;97828.06;;;17.48;64.66
76611;BME280;65503;48.534;9.062;2023-06-24T01:07:21;97824.59;;;17.47;64.89
76611;BME280;65503;48.534;9.062;2023-06-24T01:09:48;97819.53;;;17.46;64.96
76611;BME280;65503;48.534;9.062;2023-06-24T01:12:15;97824.56;;;17.42;64.72
76611;BME280;65503;48.534;9.062;2023-06-24T01:14:45;97823.16;;;17.34;64.95
76611;BME280;65503;48.534;9.062;2023-06-24T01:17:19;97819.34;;;17.25;65.07
76611;BME280;65503;48.534;9.062;2023-06-24T01:30:54;97814.69;;;16.89;66.55
76611;BME280;65503;48.534;9.062;2023-06-24T01:33:47;97805.34;;;16.86;66.66
76611;BME280;65503;48.534;9.062;2023-06-24T01:36:17;97815.16;;;16.86;67.00
76611;BME280;65503;48.534;9.062;2023-06-24T01:38:52;97810.94;;;16.85;67.01
76611;BME280;65503;48.534;9.062;2023-06-24T01:41:24;97813.00;;;16.83;66.88
76611;BME280;65503;48.534;9.062;2023-06-24T01:43:54;97804.97;;;16.78;67.02
76611;BME280;65503;48.534;9.062;2023-06-24T01:46:22;97814.56;;;16.79;67.12
76611;BME280;65503;48.534;9.062;2023-06-24T01:48:55;97820.19;;;16.82;66.81
76611;BME280;65503;48.534;9.062;2023-06-24T01:51:24;97823.09;;;16.81;66.90
76611;BME280;65503;48.534;9.062;2023-06-24T01:53:54;97825.22;;;16.79;67.05
76611;BME280;65503;48.534;9.062;2023-06-24T01:56:25;97820.94;;;16.78;67.01
76611;BME280;65503;48.534;9.062;2023-06-24T01:58:54;97821.13;;;16.71;67.03
76611;BME280;65503;48.534;9.062;2023-06-24T02:01:24;97817.88;;;16.69;67.24
76611;BME280;65503;48.534;9.062;2023-06-24T02:03:52;97808.81;;;16.65;67.41
76611;BME280;65503;48.534;9.062;2023-06-24T02:06:22;97821.28;;;16.65;68.03
76611;BME280;65503;48.534;9.062;2023-06-24T02:08:50;97820.75;;;16.63;68.22
76611;BME280;65503;48.534;9.062;2023-06-24T02:11:19;97816.72;;;16.60;68.47
76611;BME280;65503;48.534;9.062;2023-06-24T02:13:48;97822.84;;;16.61;67.99
76611;BME280;65503;48.534;9.062;2023-06-24T02:16:16;97824.09;;;16.58;68.14
76611;BME280;65503;48.534;9.062;2023-06-24T02:18:44;97829.41;;;16.58;67.93
76611;BME280;65503;48.534;9.062;2023-06-24T02:21:11;97826.41;;;16.49;67.93
76611;BME280;65503;48.534;9.062;2023-06-24T02:23:39;97824.78;;;16.48;67.81
76611;BME280;65503;48.534;9.062;2023-06-24T02:26:06;97820.03;;;16.50;67.63
76611;BME280;65503;48.534;9.062;2023-06-24T02:28:33;97819.97;;;16.45;68.52
76611;BME280;65503;48.534;9.062;2023-06-24T02:31:01;97814.03;;;16.38;68.47
76611;BME280;65503;48.534;9.062;2023-06-24T02:33:28;97819.47;;;16.48;68.48
76611;BME280;65503;48.534;9.062;2023-06-24T02:35:55;97813.69;;;16.51;68.25
76611;BME280;65503;48.534;9.062;2023-06-24T02:38:21;97825.41;;;16.56;67.97
76611;BME280;65503;48.534;9.062;2023-06-24T02:40:48;97812.66;;;16.58;67.62
76611;BME280;65503;48.534;9.062;2023-06-24T02:43:16;97825.59;;;16.49;67.92
76611;BME280;65503;48.534;9.062;2023-06-24T02:45:44;97828.19;;;16.44;67.79
76611;BME280;65503;48.534;9.062;2023-06-24T02:48:12;97829.53;;;16.46;67.81
76611;BME280;65503;48.534;9.062;2023-06-24T02:50:40;97832.44;;;16.45;67.93
76611;BME280;65503;48.534;9.062;2023-06-24T02:53:12;97830.03;;;16.43;67.99
76611;BME280;65503;48.534;9.062;2023-06-24T02:55:40;97823.66;;;16.44;67.57
76611;BME280;65503;48.534;9.062;2023-06-24T02:58:08;97818.03;;;16.41;67.80
76611;BME280;65503;48.534;9.062;2023-06-24T03:00:35;97823.34;;;16.41;68.12
76611;BME280;65503;48.534;9.062;2023-06-24T03:03:04;97814.03;;;16.38;67.80
76611;BME280;65503;48.534;9.062;2023-06-24T03:05:32;97813.22;;;16.38;67.79
76611;BME280;65503;48.534;9.062;2023-06-24T03:08:02;97809.38;;;16.29;68.10
76611;BME280;65503;48.534;9.062;2023-06-24T03:10:30;97817.75;;;16.21;68.04
76611;BME280;65503;48.534;9.062;2023-06-24T03:12:56;97818.88;;;16.25;68.56
76611;BME280;65503;48.534;9.062;2023-06-24T03:15:23;97825.63;;;16.32;67.90
76611;BME280;65503;48.534;9.062;2023-06-24T03:17:53;97819.19;;;16.28;67.84
76611;BME280;65503;48.534;9.062;2023-06-24T03:20:22;97824.44;;;16.23;67.94
76611;BME280;65503;48.534;9.062;2023-06-24T03:22:50;97833.69;;;16.21;68.20
76611;BME280;65503;48.534;9.062;2023-06-24T03:25:18;97837.63;;;16.18;68.57
76611;BME280;65503;48.534;9.062;2023-06-24T03:27:45;97842.41;;;16.16;68.65
76611;BME280;65503;48.534;9.062;2023-06-24T03:30:12;97847.88;;;16.09;68.85
76611;BME280;65503;48.534;9.062;2023-06-24T03:32:41;97847.38;;;16.12;68.53
76611;BME280;65503;48.534;9.062;2023-06-24T03:35:14;97848.19;;;16.13;68.72
76611;BME280;65503;48.534;9.062;2023-06-24T03:37:40;97862.50;;;16.12;68.50
76611;BME280;65503;48.534;9.062;2023-06-24T03:40:08;97859.31;;;16.10;68.74
76611;BME280;65503;48.534;9.062;2023-06-24T03:42:35;97860.34;;;16.09;68.87
76611;BME280;65503;48.534;9.062;2023-06-24T03:45:04;97855.91;;;16.15;68.83
76611;BME280;65503;48.534;9.062;2023-06-24T03:47:31;97858.47;;;16.26;68.45
76611;BME280;65503;48.534;9.062;2023-06-24T03:49:58;97854.28;;;16.30;68.06
76611;BME280;65503;48.534;9.062;2023-06-24T03:52:25;97857.63;;;16.42;67.66
76611;BME280;65503;48.534;9.062;2023-06-24T03:54:51;97868.28;;;16.42;67.56
76611;BME280;65503;48.534;9.062;2023-06-24T03:57:17;97860.69;;;16.51;66.88
76611;BME280;65503;48.534;9.062;2023-06-24T03:59:44;97869.38;;;16.46;67.01
76611;BME280;65503;48.534;9.062;2023-06-24T04:02:10;97870.34;;;16.57;66.97
76611;BME280;65503;48.534;9.062;2023-06-24T04:04:37;97870.19;;;16.64;66.34
76611;BME280;65503;48.534;9.062;2023-06-24T04:07:03;97868.09;;;16.66;66.17
76611;BME280;65503;48.534;9.062;2023-06-24T04:09:34;97866.00;;;16.68;66.43
76611;BME280;65503;48.534;9.062;2023-06-24T04:12:02;97872.13;;;16.68;66.40
76611;BME280;65503;48.534;9.062;2023-06-24T04:14:28;97877.56;;;16.78;66.04
76611;BME280;65503;48.534;9.062;2023-06-24T04:16:55;97885.38;;;16.85;65.66
76611;BME280;65503;48.534;9.062;2023-06-24T04:19:21;97881.50;;;16.98;64.91
76611;BME280;65503;48.534;9.062;2023-06-24T04:21:48;97887.16;;;17.01;64.64
76611;BME280;65503;48.534;9.062;2023-06-24T04:24:14;97892.13;;;17.14;64.42
76611;BME280;65503;48.534;9.062;2023-06-24T04:26:41;97895.38;;;17.21;64.13
76611;BME280;65503;48.534;9.062;2023-06-24T04:29:07;97890.34;;;17.47;63.75
76611;BME280;65503;48.534;9.062;2023-06-24T04:31:34;97885.56;;;17.70;62.71
76611;BME280;65503;48.534;9.062;2023-06-24T04:34:01;97893.41;;;18.19;61.58
76611;BME280;65503;48.534;9.062;2023-06-24T04:36:27;97893.66;;;18.96;58.92
76611;BME280;65503;48.534;9.062;2023-06-24T04:38:54;97895.50;;;19.68;57.36
76611;BME280;65503;48.534;9.062;2023-06-24T04:41:20;97895.53;;;20.09;56.16
76611;BME280;65503;48.534;9.062;2023-06-24T04:43:47;97900.31;;;20.62;54.80
76611;BME280;65503;48.534;9.062;2023-06-24T04:46:14;97895.91;;;21.07;53.71
76611;BME280;65503;48.534;9.062;2023-06-24T04:48:41;97900.31;;;21.42;52.45
76611;BME280;65503;48.534;9.062;2023-06-24T04:51:07;97905.31;;;21.64;51.19
76611;BME280;65503;48.534;9.062;2023-06-24T04:53:34;97903.56;;;21.83;51.02
76611;BME280;65503;48.534;9.062;2023-06-24T04:56:01;97894.78;;;22.11;49.94
76611;BME280;65503;48.534;9.062;2023-06-24T04:58:27;97895.56;;;22.46;48.05
76611;BME280;65503;48.534;9.062;2023-06-24T05:00:54;97896.69;;;22.68;47.72
76611;BME280;65503;48.534;9.062;2023-06-24T05:03:20;97900.22;;;22.93;47.72
76611;BME280;65503;48.534;9.062;2023-06-24T05:05:47;97904.75;;;23.40;46.58
76611;BME280;65503;48.534;9.062;2023-06-24T05:08:14;97902.59;;;23.79;44.80
76611;BME280;65503;48.534;9.062;2023-06-24T05:10:40;97911.44;;;23.99;44.50
76611;BME280;65503;48.534;9.062;2023-06-24T05:13:07;97914.94;;;24.18;43.77
76611;BME280;65503;48.534;9.062;2023-06-24T05:15:34;97906.31;;;24.16;44.00
76611;BME280;65503;48.534;9.062;2023-06-24T05:18:00;97907.38;;;24.20;44.15
76611;BME280;65503;48.534;9.062;2023-06-24T05:20:27;97904.22;;;24.32;44.08
76611;BME280;65503;48.534;9.062;2023-06-24T05:22:54;97910.47;;;24.59;42.96
76611;BME280;65503;48.534;9.062;2023-06-24T05:25:20;97914.69;;;24.79;42.68
76611;BME280;65503;48.534;9.062;2023-06-24T05:27:47;97915.22;;;24.95;41.37
76611;BME280;65503;48.534;9.062;2023-06-24T05:30:14;97924.00;;;25.14;41.53
76611;BME280;65503;48.534;9.062;2023-06-24T05:32:41;97920.44;;;24.73;41.98
76611;BME280;65503;48.534;9.062;2023-06-24T05:35:07;97921.31;;;25.14;41.62
76611;BME280;65503;48.534;9.062;2023-06-24T05:37:34;97927.47;;;25.42;41.37
76611;BME280;65503;48.534;9.062;2023-06-24T05:40:01;97928.03;;;25.80;39.87
76611;BME280;65503;48.534;9.062;2023-06-24T05:42:29;97925.69;;;26.23;39.67
76611;BME280;65503;48.534;9.062;2023-06-24T05:44:56;97920.06;;;26.64;39.02
76611;BME280;65503;48.534;9.062;2023-06-24T05:47:22;97925.72;;;26.85;37.94
76611;BME280;65503;48.534;9.062;2023-06-24T05:49:49;97924.28;;;27.18;38.02
76611;BME280;65503;48.534;9.062;2023-06-24T05:52:15;97921.88;;;26.99;36.70
76611;BME280;65503;48.534;9.062;2023-06-24T05:54:42;97914.28;;;27.19;37.06
76611;BME280;65503;48.534;9.062;2023-06-24T05:57:09;97920.56;;;26.88;38.11
76611;BME280;65503;48.534;9.062;2023-06-24T05:59:36;97923.53;;;27.35;37.27
76611;BME280;65503;48.534;9.062;2023-06-24T06:02:03;97931.56;;;27.57;37.20
76611;BME280;65503;48.534;9.062;2023-06-24T06:04:29;97926.25;;;27.26;37.03
76611;BME280;65503;48.534;9.062;2023-06-24T06:06:56;97930.31;;;27.63;36.60
76611;BME280;65503;48.534;9.062;2023-06-24T06:09:23;97929.72;;;27.83;36.24
76611;BME280;65503;48.534;9.062;2023-06-24T06:11:49;97932.25;;;28.06;36.24
76611;BME280;65503;48.534;9.062;2023-06-24T06:14:16;97929.22;;;28.42;34.90
76611;BME280;65503;48.534;9.062;2023-06-24T06:16:42;97937.47;;;28.62;35.45
76611;BME280;65503;48.534;9.062;2023-06-24T06:19:09;97928.31;;;28.93;34.35
76611;BME280;65503;48.534;9.062;2023-06-24T06:21:36;97926.88;;;29.33;34.45
76611;BME280;65503;48.534;9.062;2023-06-24T06:24:03;97924.28;;;29.66;33.53
76611;BME280;65503;48.534;9.062;2023-06-24T06:26:30;97926.63;;;29.68;33.23
76611;BME280;65503;48.534;9.062;2023-06-24T06:28:56;97922.38;;;30.08;32.76
76611;BME280;65503;48.534;9.062;2023-06-24T06:31:23;97920.66;;;30.36;32.92
76611;BME280;65503;48.534;9.062;2023-06-24T06:33:52;97910.78;;;30.65;32.14
76611;BME280;65503;48.534;9.062;2023-06-24T06:36:19;97918.78;;;30.94;31.67
76611;BME280;65503;48.534;9.062;2023-06-24T06:38:45;97928.28;;;31.00;30.96
76611;BME280;65503;48.534;9.062;2023-06-24T06:41:12;97917.78;;;31.11;30.81
76611;BME280;65503;48.534;9.062;2023-06-24T06:43:38;97919.94;;;31.17;30.42
76611;BME280;65503;48.534;9.062;2023-06-24T06:46:04;97917.22;;;31.42;29.32
76611;BME280;65503;48.534;9.062;2023-06-24T06:48:31;97927.63;;;31.52;30.03
76611;BME280;65503;48.534;9.062;2023-06-24T06:50:57;97922.19;;;31.76;29.90
76611;BME280;65503;48.534;9.062;2023-06-24T06:53:24;97924.16;;;31.91;28.28
76611;BME280;65503;48.534;9.062;2023-06-24T06:55:51;97926.25;;;31.82;29.90
76611;BME280;65503;48.534;9.062;2023-06-24T06:58:17;97923.28;;;31.87;28.56
76611;BME280;65503;48.534;9.062;2023-06-24T07:00:44;97921.91;;;31.93;28.43
76611;BME280;65503;48.534;9.062;2023-06-24T07:03:11;97913.91;;;32.13;28.66
76611;BME280;65503;48.534;9.062;2023-06-24T07:05:38;97913.22;;;32.16;26.97
76611;BME280;65503;48.534;9.062;2023-06-24T07:08:05;97924.47;;;32.02;27.77
76611;BME280;65503;48.534;9.062;2023-06-24T07:10:32;97924.16;;;31.91;27.20
76611;BME280;65503;48.534;9.062;2023-06-24T07:12:58;97914.78;;;31.89;28.15
76611;BME280;65503;48.534;9.062;2023-06-24T07:15:25;97923.38;;;31.91;27.38
76611;BME280;65503;48.534;9.062;2023-06-24T07:17:52;97918.84;;;31.95;28.00
76611;BME280;65503;48.534;9.062;2023-06-24T07:20:22;97914.31;;;32.27;26.12
76611;BME280;65503;48.534;9.062;2023-06-24T07:22:48;97919.28;;;31.97;26.57
76611;BME280;65503;48.534;9.062;2023-06-24T07:25:15;97918.50;;;31.84;27.95
76611;BME280;65503;48.534;9.062;2023-06-24T07:27:41;97907.88;;;31.67;27.71
76611;BME280;65503;48.534;9.062;2023-06-24T07:30:08;97916.06;;;31.55;27.99
76611;BME280;65503;48.534;9.062;2023-06-24T07:32:35;97904.97;;;31.48;27.83
76611;BME280;65503;48.534;9.062;2023-06-24T07:35:01;97912.75;;;31.74;27.27
76611;BME280;65503;48.534;9.062;2023-06-24T07:37:28;97917.03;;;31.87;27.58
76611;BME280;65503;48.534;9.062;2023-06-24T07:39:54;97905.63;;;31.57;26.53
76611;BME280;65503;48.534;9.062;2023-06-24T07:42:21;97910.84;;;31.62;26.21
76611;BME280;65503;48.534;9.062;2023-06-24T07:44:48;97913.19;;;31.88;26.60
76611;BME280;65503;48.534;9.062;2023-06-24T07:47:16;97907.34;;;32.01;26.75
76611;BME280;65503;48.534;9.062;2023-06-24T07:49:43;97914.47;;;30.81;27.48
76611;BME280;65503;48.534;9.062;2023-06-24T07:52:10;97916.06;;;31.55;27.38
76611;BME280;65503;48.534;9.062;2023-06-24T07:54:36;97907.88;;;31.79;27.41
76611;BME280;65503;48.534;9.062;2023-06-24T07:57:03;97901.06;;;31.73;27.41
76611;BME280;65503;48.534;9.062;2023-06-24T07:59:30;97910.09;;;31.25;26.91
76611;BME280;65503;48.534;9.062;2023-06-24T08:01:56;97902.25;;;31.60;27.38
76611;BME280;65503;48.534;9.062;2023-06-24T08:04:23;97900.44;;;31.40;28.01
76611;BME280;65503;48.534;9.062;2023-06-24T08:06:50;97901.97;;;31.77;28.32
76611;BME280;65503;48.534;9.062;2023-06-24T08:09:17;97901.59;;;31.91;26.85
76611;BME280;65503;48.534;9.062;2023-06-24T08:11:43;97902.16;;;31.84;25.42
76611;BME280;65503;48.534;9.062;2023-06-24T08:14:10;97896.66;;;32.09;26.23
76611;BME280;65503;48.534;9.062;2023-06-24T08:16:37;97898.66;;;32.24;26.44
76611;BME280;65503;48.534;9.062;2023-06-24T08:19:03;97897.84;;;32.51;25.93
76611;BME280;65503;48.534;9.062;2023-06-24T08:21:30;97899.22;;;32.45;25.71
76611;BME280;65503;48.534;9.062;2023-06-24T08:23:56;97890.97;;;32.57;25.83
76611;BME280;65503;48.534;9.062;2023-06-24T08:26:23;97893.44;;;32.62;24.41
76611;BME280;65503;48.534;9.062;2023-06-24T08:28:50;97892.94;;;32.72;23.96
76611;BME280;65503;48.534;9.062;2023-06-24T08:31:16;97891.66;;;32.54;24.24
76611;BME280;65503;48.534;9.062;2023-06-24T08:33:44;97889.66;;;32.51;25.17
76611;BME280;65503;48.534;9.062;2023-06-24T08:36:13;97879.03;;;32.77;25.00
76611;BME280;65503;48.534;9.062;2023-06-24T08:38:40;97882.47;;;32.90;25.10
76611;BME280;65503;48.534;9.062;2023-06-24T08:41:06;97887.81;;;32.55;24.62
76611;BME280;65503;48.534;9.062;2023-06-24T08:43:33;97892.69;;;32.06;25.98
76611;BME280;65503;48.534;9.062;2023-06-24T08:46:00;97886.53;;;31.81;25.91
76611;BME280;65503;48.534;9.062;2023-06-24T08:48:28;97883.72;;;32.06;26.61
76611;BME280;65503;48.534;9.062;2023-06-24T08:50:58;97885.06;;;32.12;25.53
76611;BME280;65503;48.534;9.062;2023-06-24T08:53:26;97875.34;;;32.26;25.83
76611;BME280;65503;48.534;9.062;2023-06-24T08:55:53;97870.78;;;32.03;26.09
76611;BME280;65503;48.534;9.062;2023-06-24T08:58:20;97877.19;;;31.94;26.97
76611;BME280;65503;48.534;9.062;2023-06-24T09:00:47;97883.00;;;32.21;27.49
76611;BME280;65503;48.534;9.062;2023-06-24T09:03:14;97878.72;;;32.08;26.63
76611;BME280;65503;48.534;9.062;2023-06-24T09:05:41;97868.72;;;31.32;25.96
76611;BME280;65503;48.534;9.062;2023-06-24T09:08:08;97870.28;;;30.84;27.00
76611;BME280;65503;48.534;9.062;2023-06-24T09:10:36;97868.81;;;31.35;27.37
76611;BME280;65503;48.534;9.062;2023-06-24T09:13:05;97866.44;;;31.86;26.80
76611;BME280;65503;48.534;9.062;2023-06-24T09:15:36;97869.09;;;31.70;25.94
76611;BME280;65503;48.534;9.062;2023-06-24T09:18:03;97871.28;;;31.92;25.98
76611;BME280;65503;48.534;9.062;2023-06-24T09:20:31;97864.47;;;31.98;25.99
76611;BME280;65503;48.534;9.062;2023-06-24T09:23:00;97864.25;;;31.91;26.06
76611;BME280;65503;48.534;9.062;2023-06-24T09:25:27;97854.19;;;30.91;24.66
76611;BME280;65503;48.534;9.062;2023-06-24T09:27:54;97855.41;;;31.54;24.94
76611;BME280;65503;48.534;9.062;2023-06-24T09:30:23;97855.97;;;31.48;24.60
76611;BME280;65503;48.534;9.062;2023-06-24T09:32:50;97846.19;;;31.71;24.61
76611;BME280;65503;48.534;9.062;2023-06-24T09:35:22;97840.13;;;30.65;25.28
76611;BME280;65503;48.534;9.062;2023-06-24T09:37:53;97838.44;;;30.97;24.67
76611;BME280;65503;48.534;9.062;2023-06-24T09:40:20;97837.66;;;31.33;24.89
76611;BME280;65503;48.534;9.062;2023-06-24T09:42:52;97835.13;;;31.28;24.31
76611;BME280;65503;48.534;9.062;2023-06-24T09:45:20;97836.69;;;31.53;23.67
76611;BME280;65503;48.534;9.062;2023-06-24T09:47:48;97834.53;;;31.58;24.47
76611;BME280;65503;48.534;9.062;2023-06-24T09:50:14;97830.84;;;30.66;25.33
76611;BME280;65503;48.534;9.062;2023-06-24T09:52:43;97831.31;;;31.04;25.12
76611;BME280;65503;48.534;9.062;2023-06-24T09:55:13;97831.97;;;31.01;25.19
76611;BME280;65503;48.534;9.062;2023-06-24T09:57:42;97818.72;;;30.88;24.86
76611;BME280;65503;48.534;9.062;2023-06-24T10:00:11;97809.19;;;30.00;25.65
76611;BME280;65503;48.534;9.062;2023-06-24T10:02:43;97818.72;;;30.06;25.66
76611;BME280;65503;48.534;9.062;2023-06-24T10:05:12;97814.69;;;30.36;25.89
76611;BME280;65503;48.534;9.062;2023-06-24T10:07:40;97812.56;;;29.43;26.92
76611;BME280;65503;48.534;9.062;2023-06-24T10:10:08;97805.06;;;29.40;26.47
76611;BME280;65503;48.534;9.062;2023-06-24T10:12:36;97806.00;;;29.44;27.23
76611;BME280;65503;48.534;9.062;2023-06-24T10:15:04;97809.75;;;29.93;27.62
76611;BME280;65503;48.534;9.062;2023-06-24T10:17:32;97801.63;;;30.51;27.66
76611;BME280;65503;48.534;9.062;2023-06-24T10:20:03;97799.66;;;30.39;26.42
76611;BME280;65503;48.534;9.062;2023-06-24T10:22:30;97795.19;;;30.10;25.56
76611;BME280;65503;48.534;9.062;2023-06-24T10:25:02;97803.69;;;30.21;24.35
76611;BME280;65503;48.534;9.062;2023-06-24T10:27:38;97788.03;;;29.73;26.24
76611;BME280;65503;48.534;9.062;2023-06-24T10:30:06;97785.16;;;30.23;25.16
76611;BME280;65503;48.534;9.062;2023-06-24T10:32:41;97786.91;;;30.52;24.17
76611;BME280;65503;48.534;9.062;2023-06-24T10:35:29;97792.44;;;29.44;23.63
76611;BME280;65503;48.534;9.062;2023-06-24T10:38:01;97785.13;;;29.15;24.19
76611;BME280;65503;48.534;9.062;2023-06-24T10:40:37;97787.94;;;29.48;25.73
76611;BME280;65503;48.534;9.062;2023-06-24T10:43:26;97777.00;;;28.57;25.48
76611;BME280;65503;48.534;9.062;2023-06-24T10:45:54;97776.16;;;28.27;27.26
76611;BME280;65503;48.534;9.062;2023-06-24T10:48:22;97774.00;;;28.88;27.14
76611;BME280;65503;48.534;9.062;2023-06-24T10:50:49;97767.78;;;29.08;25.36
76611;BME280;65503;48.534;9.062;2023-06-24T10:53:18;97767.81;;;29.49;26.89
76611;BME280;65503;48.534;9.062;2023-06-24T10:55:45;97761.13;;;29.47;25.27
76611;BME280;65503;48.534;9.062;2023-06-24T10:58:14;97757.84;;;30.19;25.15
76611;BME280;65503;48.534;9.062;2023-06-24T11:00:42;97757.16;;;29.98;24.55
76611;BME280;65503;48.534;9.062;2023-06-24T11:03:14;97754.59;;;30.38;24.78
76611;BME280;65503;48.534;9.062;2023-06-24T11:05:43;97753.38;;;30.72;26.17
76611;BME280;65503;48.534;9.062;2023-06-24T11:08:10;97756.31;;;30.79;23.83
76611;BME280;65503;48.534;9.062;2023-06-24T11:10:47;97746.81;;;30.61;25.26
76611;BME280;65503;48.534;9.062;2023-06-24T11:13:14;97739.34;;;30.70;23.14
76611;BME280;65503;48.534;9.062;2023-06-24T11:15:41;97746.34;;;30.34;22.40
76611;BME280;65503;48.534;9.062;2023-06-24T11:18:09;97745.97;;;29.25;24.39
76611;BME280;65503;48.534;9.062;2023-06-24T11:20:37;97737.81;;;28.84;24.93
76611;BME280;65503;48.534;9.062;2023-06-24T11:23:09;97733.75;;;29.73;24.04
76611;BME280;65503;48.534;9.062;2023-06-24T11:25:41;97730.91;;;30.14;24.49
76611;BME280;65503;48.534;9.062;2023-06-24T11:28:17;97722.56;;;30.44;23.95
76611;BME280;65503;48.534;9.062;2023-06-24T11:30:48;97728.66;;;30.04;24.85
76611;BME280;65503;48.534;9.062;2023-06-24T11:33:26;97720.75;;;30.23;24.06
76611;BME280;65503;48.534;9.062;2023-06-24T11:35:52;97712.63;;;30.35;24.23
76611;BME280;65503;48.534;9.062;2023-06-24T11:38:19;97720.97;;;30.43;23.68
76611;BME280;65503;48.534;9.062;2023-06-24T11:40:48;97710.47;;;29.72;24.98
76611;BME280;65503;48.534;9.062;2023-06-24T11:43:14;97717.94;;;28.80;25.74
76611;BME280;65503;48.534;9.062;2023-06-24T11:45:41;97712.78;;;28.87;26.14
76611;BME280;65503;48.534;9.062;2023-06-24T11:48:07;97712.38;;;28.97;27.13
76611;BME280;65503;48.534;9.062;2023-06-24T11:50:35;97714.53;;;29.33;26.34
76611;BME280;65503;48.534;9.062;2023-06-24T11:53:02;97712.44;;;29.09;23.99
76611;BME280;65503;48.534;9.062;2023-06-24T11:55:31;97702.28;;;29.60;24.85
76611;BME280;65503;48.534;9.062;2023-06-24T11:58:02;97696.75;;;30.01;24.57
76611;BME280;65503;48.534;9.062;2023-06-24T12:00:35;97698.09;;;30.44;24.68
76611;BME280;65503;48.534;9.062;2023-06-24T12:03:05;97694.59;;;30.67;22.97
76611;BME280;65503;48.534;9.062;2023-06-24T12:05:36;97691.31;;;30.25;22.34
76611;BME280;65503;48.534;9.062;2023-06-24T12:08:07;97683.84;;;30.34;22.57
76611;BME280;65503;48.534;9.062;2023-06-24T12:10:38;97677.97;;;30.45;22.75
76611;BME280;65503;48.534;9.062;2023-06-24T12:13:05;97670.94;;;30.68;23.55
76611;BME280;65503;48.534;9.062;2023-06-24T12:15:33;97665.50;;;30.44;22.90
76611;BME280;65503;48.534;9.062;2023-06-24T12:18:00;97663.69;;;30.60;23.08
76611;BME280;65503;48.534;9.062;2023-06-24T12:20:28;97662.63;;;30.76;21.41
76611;BME280;65503;48.534;9.062;2023-06-24T12:23:00;97652.41;;;30.98;21.72
76611;BME280;65503;48.534;9.062;2023-06-24T12:25:26;97658.28;;;30.88;22.70
76611;BME280;65503;48.534;9.062;2023-06-24T12:27:53;97651.13;;;31.07;22.04
76611;BME280;65503;48.534;9.062;2023-06-24T12:30:20;97656.66;;;30.59;22.46
76611;BME280;65503;48.534;9.062;2023-06-24T12:32:49;97648.09;;;30.57;24.12
76611;BME280;65503;48.534;9.062;2023-06-24T12:35:16;97646.25;;;30.61;22.68
76611;BME280;65503;48.534;9.062;2023-06-24T12:37:43;97639.72;;;30.90;23.45
76611;BME280;65503;48.534;9.062;2023-06-24T12:40:12;97640.03;;;31.00;22.38
76611;BME280;65503;48.534;9.062;2023-06-24T12:42:38;97639.81;;;30.93;22.16
76611;BME280;65503;48.534;9.062;2023-06-24T12:45:05;97646.59;;;31.27;22.59
76611;BME280;65503;48.534;9.062;2023-06-24T12:47:31;97635.72;;;31.27;21.84
76611;BME280;65503;48.534;9.062;2023-06-24T12:49:58;97634.97;;;30.34;22.30
76611;BME280;65503;48.534;9.062;2023-06-24T12:52:25;97636.09;;;30.21;22.32
76611;BME280;65503;48.534;9.062;2023-06-24T12:54:51;97632.25;;;30.22;22.36
76611;BME280;65503;48.534;9.062;2023-06-24T12:57:18;97622.91;;;30.72;22.28
76611;BME280;65503;48.534;9.062;2023-06-24T12:59:45;97625.09;;;30.94;22.28
76611;BME280;65503;48.534;9.062;2023-06-24T13:02:11;97628.00;;;31.13;21.90
76611;BME280;65503;48.534;9.062;2023-06-24T13:04:38;97611.81;;;31.48;22.96
76611;BME280;65503;48.534;9.062;2023-06-24T13:07:05;97612.81;;;31.28;20.27
76611;BME280;65503;48.534;9.062;2023-06-24T13:09:31;97609.00;;;31.45;21.93
76611;BME280;65503;48.534;9.062;2023-06-24T13:11:58;97607.91;;;31.18;20.40
76611;BME280;65503;48.534;9.062;2023-06-24T13:14:24;97606.59;;;31.28;22.03